Time;durP1;ratioP1;P1;durP2;ratioP2;P2;SDS_P1;SDS_P2;PMS_P1;PMS_P2;Temp;Humidity;BMP_temperature;BMP_pressure;BME280_temperature;BME280_humidity;BME280_pressure;Samples;Min_cycle;Max_cycle;Signal;HPM_P1;HPM_P2
2023/10/07 00:00:47;;;;;;;9.27;4.30;;;;;;;14.81;91.80;102088.25;5072885;28;20090;-61
2023/10/07 00:03:15;;;;;;;14.80;4.40;;;;;;;14.78;92.37;102092.66;5073778;28;20135;-61
2023/10/07 00:05:42;;;;;;;11.00;4.28;;;;;;;14.77;92.19;102093.53;5073332;28;20035;-60
2023/10/07 00:08:16;;;;;;;10.98;4.35;;;;;;;14.80;92.07;102092.66;5073384;28;20482;-61
2023/10/07 00:10:49;;;;;;;8.68;4.45;;;;;;;14.81;92.20;102083.81;5072513;28;20036;-61
2023/10/07 00:13:17;;;;;;;11.57;4.68;;;;;;;14.78;92.46;102081.13;5073773;28;20040;-60
2023/10/07 00:15:43;;;;;;;11.52;4.25;;;;;;;14.68;93.05;102072.09;5072558;28;20525;-62
2023/10/07 00:18:13;;;;;;;13.45;4.38;;;;;;;14.64;93.40;102070.28;5073545;28;20466;-62
2023/10/07 00:20:48;;;;;;;8.60;4.25;;;;;;;14.60;93.82;102060.47;5073343;28;20070;-61
2023/10/07 00:23:18;;;;;;;9.32;4.70;;;;;;;14.61;93.87;102050.75;5073608;28;20033;-62
2023/10/07 00:25:49;;;;;;;11.75;4.70;;;;;;;14.60;93.88;102049.81;5073387;28;20493;-60
2023/10/07 00:28:19;;;;;;;10.75;4.53;;;;;;;14.56;94.25;102057.75;5072443;28;20039;-62
2023/10/07 00:30:53;;;;;;;11.60;4.72;;;;;;;14.50;95.19;102061.22;5073582;28;20103;-61
2023/10/07 00:33:21;;;;;;;13.50;4.85;;;;;;;14.52;95.34;102062.16;5073526;28;20047;-61
2023/10/07 00:35:53;;;;;;;13.32;4.78;;;;;;;14.56;95.16;102073.69;5073225;28;20024;-61
2023/10/07 00:38:37;;;;;;;;;;;;;;;14.62;93.96;102063.16;5073609;28;20032;-62
2023/10/07 00:41:03;;;;;;;13.75;5.03;;;;;;;14.58;95.12;102067.53;5073194;28;19908;-62
2023/10/07 00:43:32;;;;;;;12.60;4.80;;;;;;;14.51;95.43;102068.31;5072980;28;20033;-61
2023/10/07 00:46:21;;;;;;;13.35;4.95;;;;;;;14.49;95.66;102076.28;5072682;28;20490;-61
2023/10/07 00:49:40;;;;;;;11.60;5.03;;;;;;;14.48;95.74;102070.94;5072961;28;20067;-61
2023/10/07 00:51:35;;;;;;;9.38;5.10;;;;;;;14.46;96.38;102078.88;5065433;28;20094;-61
2023/10/07 00:54:18;;;;;;;13.10;4.95;;;;;;;14.47;96.84;102085.06;5072736;28;20028;-62
2023/10/07 00:56:54;;;;;;;;;;;;;;;14.50;96.05;102080.72;5073608;28;20071;-61
2023/10/07 00:59:20;;;;;;;11.23;5.03;;;;;;;14.44;96.55;102080.63;5073034;28;19935;-63
2023/10/07 01:01:49;;;;;;;16.35;5.55;;;;;;;14.44;97.25;102069.97;5072742;28;20475;-61
2023/10/07 01:04:16;;;;;;;12.95;5.95;;;;;;;14.39;97.81;102053.06;5073176;28;20033;-60
2023/10/07 01:06:45;;;;;;;12.25;5.20;;;;;;;14.43;97.81;102051.31;5072692;28;20040;-62
2023/10/07 01:09:14;;;;;;;15.48;5.82;;;;;;;14.38;98.48;102051.25;5072626;28;20498;-62
2023/10/07 01:11:40;;;;;;;17.92;5.50;;;;;;;14.39;98.14;102055.72;5071531;28;20025;-62
2023/10/07 01:14:11;;;;;;;14.30;5.82;;;;;;;14.40;98.45;102054.84;5072940;28;20073;-61
2023/10/07 01:16:41;;;;;;;12.63;5.50;;;;;;;14.40;98.25;102049.53;5072630;28;20047;-62
2023/10/07 01:21:55;;;;;;;15.93;5.53;;;;;;;14.39;98.66;102053.06;5076974;28;20033;-61
2023/10/07 01:27:16;;;;;;;11.43;5.30;;;;;;;14.36;99.05;102063.66;5076791;28;20055;-61
2023/10/07 01:29:42;;;;;;;11.73;5.82;;;;;;;14.40;98.62;102075.25;5076516;28;20124;-61
2023/10/07 01:32:12;;;;;;;13.88;6.35;;;;;;;14.36;99.09;102070.75;5076305;28;20119;-61
2023/10/07 01:34:38;;;;;;;14.13;6.03;;;;;;;14.41;98.78;102067.28;5076801;28;20108;-62
2023/10/07 01:37:08;;;;;;;18.10;6.60;;;;;;;14.37;99.54;102065.44;5076301;28;20107;-61
2023/10/07 01:39:40;;;;;;;17.77;5.72;;;;;;;14.34;99.56;102069.81;5076398;28;20058;-61
2023/10/07 01:42:07;;;;;;;12.25;5.85;;;;;;;14.34;99.40;102073.34;5076395;28;20115;-62
2023/10/07 01:44:38;;;;;;;15.65;6.40;;;;;;;14.34;99.71;102064.50;5076528;28;20025;-61
2023/10/07 01:47:04;;;;;;;11.43;6.27;;;;;;;14.38;99.58;102061.91;5076122;28;20037;-62
2023/10/07 01:49:30;;;;;;;14.15;6.38;;;;;;;14.33;99.85;102057.41;5075971;28;20794;-62
2023/10/07 01:51:56;;;;;;;16.42;6.50;;;;;;;14.29;100.00;102054.69;5076017;28;20529;-60
2023/10/07 01:54:21;;;;;;;13.07;6.68;;;;;;;14.26;100.00;102041.38;5076140;28;20063;-61
2023/10/07 01:56:47;;;;;;;13.07;6.75;;;;;;;14.26;100.00;102040.44;5076071;28;20031;-62
2023/10/07 02:01:50;;;;;;;16.42;6.90;;;;;;;14.24;100.00;102050.19;5076327;28;20047;-62
2023/10/07 02:04:18;;;;;;;17.02;6.90;;;;;;;14.25;100.00;102038.66;5076230;28;20051;-62
2023/10/07 02:06:51;;;;;;;15.63;7.13;;;;;;;14.26;100.00;102049.34;5075761;28;20032;-62
2023/10/07 02:09:24;;;;;;;14.75;7.40;;;;;;;14.26;100.00;102046.69;5076026;28;20373;-61
2023/10/07 02:11:52;;;;;;;17.48;7.45;;;;;;;14.31;100.00;102044.09;5076105;28;20484;-61
2023/10/07 02:14:23;;;;;;;17.88;7.78;;;;;;;14.32;100.00;102048.53;5075590;28;20032;-61
2023/10/07 02:16:49;;;;;;;16.67;7.85;;;;;;;14.31;100.00;102048.53;5074617;28;20037;-61
2023/10/07 02:19:22;;;;;;;15.50;7.95;;;;;;;14.33;100.00;102038.78;5075761;28;20039;-62
2023/10/07 02:21:48;;;;;;;22.52;8.63;;;;;;;14.32;100.00;102029.91;5075682;28;20024;-61
2023/10/07 02:24:15;;;;;;;19.88;7.88;;;;;;;14.33;100.00;102034.34;5075565;28;20494;-61
2023/10/07 02:26:43;;;;;;;16.00;8.02;;;;;;;14.37;100.00;102052.13;5075845;28;20036;-61
2023/10/07 02:29:13;;;;;;;15.20;8.15;;;;;;;14.39;100.00;102053.06;5075133;28;20490;-61
2023/10/07 02:31:43;;;;;;;20.58;8.73;;;;;;;14.40;100.00;102041.56;5075522;28;20032;-62
2023/10/07 02:34:28;;;;;;;22.63;8.80;;;;;;;14.40;100.00;102036.25;5075421;28;20033;-62
2023/10/07 02:37:10;;;;;;;18.25;8.93;;;;;;;14.45;100.00;102042.50;5075195;28;20052;-62
2023/10/07 02:39:48;;;;;;;16.42;8.88;;;;;;;14.51;100.00;102041.72;5075573;28;20047;-61
2023/10/07 02:42:21;;;;;;;17.85;9.75;;;;;;;14.52;100.00;102046.19;5074151;28;20131;-61
2023/10/07 02:44:54;;;;;;;17.73;8.82;;;;;;;14.54;100.00;102052.41;5075287;28;20112;-61
2023/10/07 02:47:20;;;;;;;17.83;9.60;;;;;;;14.59;100.00;102045.38;5074530;28;20174;-60
2023/10/07 02:49:49;;;;;;;19.10;9.15;;;;;;;14.62;100.00;102049.88;5075312;28;20079;-62
2023/10/07 02:52:17;;;;;;;24.52;9.82;;;;;;;14.63;100.00;102046.31;5074880;28;20033;-61
2023/10/07 02:54:43;;;;;;;17.88;9.75;;;;;;;14.64;100.00;102048.09;5074043;28;20037;-62
2023/10/07 02:57:21;;;;;;;19.35;10.85;;;;;;;14.66;100.00;102051.69;5074987;28;20033;-62
2023/10/07 03:00:00;;;;;;;20.17;10.60;;;;;;;14.68;100.00;102048.16;5073614;28;20116;-62
2023/10/07 03:02:48;;;;;;;22.50;10.45;;;;;;;14.69;100.00;102042.00;5075117;28;20039;-62
2023/10/07 03:05:14;;;;;;;23.42;11.00;;;;;;;14.72;100.00;102047.34;5075029;28;20099;-61
2023/10/07 03:07:49;;;;;;;23.60;11.90;;;;;;;14.76;100.00;102042.94;5074769;28;20047;-62
2023/10/07 03:10:28;;;;;;;21.50;11.93;;;;;;;14.78;100.00;102054.53;5073686;28;20036;-61
2023/10/07 03:13:01;;;;;;;21.90;11.73;;;;;;;14.81;100.00;102051.00;5073376;28;20044;-62
2023/10/07 03:17:58;;;;;;;21.88;11.98;;;;;;;14.85;100.00;102039.50;5074758;28;20036;-61
2023/10/07 03:20:28;;;;;;;26.45;12.13;;;;;;;14.87;100.00;102040.44;5074402;28;20056;-61
2023/10/07 03:23:13;;;;;;;21.95;11.35;;;;;;;14.91;100.00;102048.47;5073215;28;20398;-62
2023/10/07 03:26:05;;;;;;;22.10;12.25;;;;;;;14.91;100.00;102045.81;5074453;28;20024;-62
2023/10/07 03:28:36;;;;;;;20.65;12.07;;;;;;;14.92;100.00;102044.94;5074340;28;20064;-61
2023/10/07 03:31:10;;;;;;;25.58;12.75;;;;;;;14.93;100.00;102030.75;5074568;28;20052;-62
2023/10/07 03:33:45;;;;;;;21.23;12.18;;;;;;;14.96;100.00;102035.22;5074429;28;20036;-61
2023/10/07 03:39:16;;;;;;;27.85;12.80;;;;;;;14.97;100.00;102037.88;5074113;28;20078;-61
2023/10/07 03:41:47;;;;;;;25.13;12.85;;;;;;;14.98;100.00;102031.69;5072957;28;20509;-61
2023/10/07 03:44:19;;;;;;;19.65;12.05;;;;;;;14.96;100.00;102038.78;5074320;28;20111;-62
2023/10/07 03:46:47;;;;;;;21.60;12.80;;;;;;;14.97;100.00;102031.66;5073924;28;20119;-61
2023/10/07 03:49:15;;;;;;;22.17;13.15;;;;;;;14.97;100.00;102024.56;5073419;28;20119;-62
2023/10/07 03:51:41;;;;;;;23.83;13.25;;;;;;;14.97;100.00;102018.38;5073759;28;20032;-62
2023/10/07 03:54:15;;;;;;;22.58;12.38;;;;;;;14.97;100.00;102013.94;5072467;28;20025;-61
2023/10/07 03:56:43;;;;;;;25.42;13.65;;;;;;;15.01;100.00;102014.88;5074128;28;20090;-62
2023/10/07 03:59:09;;;;;;;23.88;14.45;;;;;;;15.02;100.00;102011.31;5072672;28;20059;-64
2023/10/07 04:01:42;;;;;;;28.92;13.85;;;;;;;15.05;100.00;102013.13;5073617;28;20386;-62
2023/10/07 04:04:11;;;;;;;27.98;13.63;;;;;;;15.05;100.00;102003.38;5073930;28;20107;-61
2023/10/07 04:06:38;;;;;;;23.48;13.90;;;;;;;15.06;100.00;102009.59;5073777;28;20116;-62
2023/10/07 04:09:11;;;;;;;30.55;14.02;;;;;;;15.08;100.00;102003.41;5073444;28;20032;-61
2023/10/07 04:11:39;;;;;;;28.73;15.27;;;;;;;15.08;100.00;102000.75;5073562;28;20484;-61
2023/10/07 04:14:27;;;;;;;30.75;15.20;;;;;;;15.08;100.00;101995.44;5073646;28;20025;-62
2023/10/07 04:16:54;;;;;;;24.88;14.13;;;;;;;15.09;100.00;101989.22;5073364;28;20028;-61
2023/10/07 04:21:50;;;;;;;25.42;13.93;;;;;;;15.05;100.00;101999.81;5073588;28;20490;-62
2023/10/07 04:24:18;;;;;;;28.83;14.43;;;;;;;15.06;100.00;102023.78;5073538;28;20029;-62
2023/10/07 04:26:54;;;;;;;27.77;14.57;;;;;;;15.08;100.00;102007.84;5073204;28;20127;-62
2023/10/07 04:29:21;;;;;;;30.70;15.20;;;;;;;15.10;100.00;102003.41;5073590;28;20028;-61
2023/10/07 04:31:51;;;;;;;26.02;14.05;;;;;;;15.09;100.00;102014.97;5073472;28;20033;-62
2023/10/07 04:34:23;;;;;;;25.77;14.10;;;;;;;15.09;100.00;102015.84;5073428;28;20039;-61
2023/10/07 04:42:20;;;;;;;28.30;14.52;;;;;;;15.13;100.00;102022.09;5073503;28;20043;-62
2023/10/07 04:52:40;;;;;;;25.10;13.02;;;;;;;15.20;100.00;102031.91;5072924;28;20267;-62
2023/10/07 04:55:19;;;;;;;25.50;13.57;;;;;;;15.21;100.00;102036.41;5072921;28;20021;-62
2023/10/07 05:02:57;;;;;;;19.40;11.57;;;;;;;15.23;100.00;102034.63;5072861;28;20465;-62
2023/10/07 05:05:24;;;;;;;25.10;12.02;;;;;;;15.24;100.00;102023.97;5071548;28;20035;-62
2023/10/07 05:07:50;;;;;;;23.70;11.90;;;;;;;15.25;100.00;102027.56;5072696;28;20078;-62
2023/10/07 05:10:20;;;;;;;26.15;12.10;;;;;;;15.25;100.00;102033.78;5072962;28;20530;-62
2023/10/07 05:12:46;;;;;;;24.17;11.85;;;;;;;15.26;100.00;102032.88;5073116;28;20106;-62
2023/10/07 05:15:13;;;;;;;19.48;11.43;;;;;;;15.25;100.00;102023.13;5073004;28;20470;-62
2023/10/07 05:17:39;;;;;;;22.67;11.70;;;;;;;15.27;100.00;102034.66;5072803;28;20033;-62
2023/10/07 05:20:06;;;;;;;20.60;11.30;;;;;;;15.28;100.00;102023.13;5072746;28;20398;-62
2023/10/07 05:22:31;;;;;;;20.70;11.35;;;;;;;15.27;100.00;102037.34;5072648;28;20044;-62
2023/10/07 05:24:59;;;;;;;19.05;10.57;;;;;;;15.30;100.00;102031.16;5072708;28;20119;-61
2023/10/07 05:27:25;;;;;;;22.85;10.60;;;;;;;15.28;100.00;102030.22;5072929;28;20098;-61
2023/10/07 05:29:50;;;;;;;21.50;9.98;;;;;;;15.28;100.00;102023.13;5072596;28;20097;-62
2023/10/07 05:32:19;;;;;;;17.63;10.02;;;;;;;15.27;100.00;102024.00;5072726;28;20028;-61
2023/10/07 05:34:47;;;;;;;21.00;11.30;;;;;;;15.24;100.00;102021.31;5072750;28;20151;-62
2023/10/07 05:37:12;;;;;;;23.67;10.18;;;;;;;15.27;100.00;102017.81;5072774;28;20043;-61
2023/10/07 05:39:41;;;;;;;16.92;9.63;;;;;;;15.25;100.00;102014.25;5072590;28;20375;-62
2023/10/07 05:42:07;;;;;;;22.35;10.45;;;;;;;15.24;100.00;102012.44;5072475;28;20028;-61
2023/10/07 05:44:35;;;;;;;18.67;9.25;;;;;;;15.26;100.00;102019.56;5072494;28;20056;-61
2023/10/07 05:47:02;;;;;;;18.95;9.50;;;;;;;15.26;100.00;102016.91;5072597;28;20048;-61
2023/10/07 05:49:31;;;;;;;21.70;9.80;;;;;;;15.27;100.00;102012.47;5071900;28;20052;-62
2023/10/07 05:51:58;;;;;;;22.45;9.85;;;;;;;15.27;100.00;102016.03;5071882;28;20482;-62
2023/10/07 05:54:28;;;;;;;18.13;9.73;;;;;;;15.29;100.00;102026.72;5072233;28;20424;-61
2023/10/07 05:56:55;;;;;;;18.05;9.38;;;;;;;15.26;100.00;102029.34;5072415;28;20029;-62
2023/10/07 05:59:22;;;;;;;20.05;9.60;;;;;;;15.27;100.00;102020.47;5071956;28;20036;-61
2023/10/07 06:01:48;;;;;;;17.08;9.15;;;;;;;15.28;100.00;102019.59;5072378;28;20039;-62
2023/10/07 06:04:14;;;;;;;16.95;8.93;;;;;;;15.26;100.00;102019.56;5073855;28;20397;-61
2023/10/07 06:06:42;;;;;;;20.08;9.32;;;;;;;15.28;100.00;102023.13;5075731;28;20029;-60
2023/10/07 06:09:10;;;;;;;19.52;9.45;;;;;;;15.30;100.00;102031.16;5075258;28;20031;-62
2023/10/07 06:11:35;;;;;;;15.60;8.80;;;;;;;15.33;100.00;102032.94;5075396;28;20029;-61
2023/10/07 06:14:04;;;;;;;20.20;9.50;;;;;;;15.32;100.00;102039.16;5075337;28;20028;-63
2023/10/07 06:16:29;;;;;;;16.10;9.30;;;;;;;15.35;100.00;102036.53;5075221;28;20039;-62
2023/10/07 06:18:56;;;;;;;19.05;8.43;;;;;;;15.37;100.00;102043.63;5075073;28;20028;-61
2023/10/07 06:21:27;;;;;;;18.90;9.27;;;;;;;15.39;100.00;102046.34;5075094;28;20059;-61
2023/10/07 06:23:59;;;;;;;18.23;8.82;;;;;;;15.39;100.00;102041.91;5075350;28;20121;-62
2023/10/07 06:26:25;;;;;;;17.17;8.35;;;;;;;15.41;100.00;102034.81;5075329;28;20024;-60
2023/10/07 06:28:51;;;;;;;19.17;8.90;;;;;;;15.42;100.00;102030.41;5075215;28;20025;-62
2023/10/07 06:31:31;;;;;;;16.35;8.68;;;;;;;15.45;100.00;102030.41;5074905;28;20047;-61
2023/10/07 06:34:00;;;;;;;17.15;8.32;;;;;;;15.48;100.00;102051.75;5074104;28;20493;-61
2023/10/07 06:36:30;;;;;;;17.55;8.13;;;;;;;15.50;100.00;102052.66;5074813;28;20485;-62
2023/10/07 06:38:58;;;;;;;21.50;8.88;;;;;;;15.50;100.00;102068.63;5075153;28;20032;-61
2023/10/07 06:41:29;;;;;;;17.90;8.40;;;;;;;15.48;100.00;102067.75;5074953;28;20033;-62
2023/10/07 06:43:59;;;;;;;18.08;8.23;;;;;;;15.50;100.00;102060.63;5075278;28;20036;-62
2023/10/07 06:46:29;;;;;;;17.48;8.00;;;;;;;15.50;100.00;102056.22;5075049;28;20048;-62
2023/10/07 06:48:55;;;;;;;17.70;7.85;;;;;;;15.52;100.00;102054.47;5074575;28;20036;-62
2023/10/07 06:51:20;;;;;;;17.38;8.30;;;;;;;15.53;100.00;102056.22;5074493;28;20371;-62
2023/10/07 06:53:46;;;;;;;16.25;8.82;;;;;;;15.55;100.00;102052.72;5072965;28;20036;-61
2023/10/07 06:56:20;;;;;;;17.45;8.63;;;;;;;15.55;100.00;102066.03;5074519;28;20020;-61
2023/10/07 06:58:59;;;;;;;17.23;7.55;;;;;;;15.57;100.00;102064.28;5074460;28;20032;-61
2023/10/07 07:04:16;;;;;;;15.65;7.93;;;;;;;15.62;100.00;102076.75;5074733;28;20051;-62
2023/10/07 07:06:44;;;;;;;16.30;7.88;;;;;;;15.65;100.00;102076.81;5074293;28;20029;-61
2023/10/07 07:12:09;;;;;;;18.02;8.07;;;;;;;15.68;100.00;102073.31;5074587;28;20062;-62
2023/10/07 07:14:41;;;;;;;15.15;7.40;;;;;;;15.70;100.00;102064.44;5073511;28;20029;-61
2023/10/07 07:22:37;;;;;;;15.60;7.93;;;;;;;15.83;100.00;102083.19;5074191;28;20032;-62
2023/10/07 07:25:12;;;;;;;18.27;7.65;;;;;;;15.89;100.00;102075.28;5074020;28;20343;-62
2023/10/07 07:27:45;;;;;;;15.32;7.65;;;;;;;15.95;100.00;102076.19;5074382;28;20089;-63
2023/10/07 07:30:57;;;;;;;15.63;7.25;;;;;;;15.99;100.00;102087.78;5074207;28;20032;-62
2023/10/07 07:33:15;;;;;;;19.42;7.97;;;;;;;16.05;100.00;102093.16;5068295;28;20040;-61
2023/10/07 07:35:51;;;;;;;16.02;7.47;;;;;;;16.11;100.00;102098.56;5073767;28;20458;-61
2023/10/07 07:38:29;;;;;;;13.77;7.03;;;;;;;16.15;100.00;102081.69;5073708;28;20364;-62
2023/10/07 07:41:11;;;;;;;16.45;7.80;;;;;;;16.17;100.00;102089.69;5073740;28;20025;-62
2023/10/07 07:43:40;;;;;;;14.52;7.45;;;;;;;16.18;100.00;102089.69;5072586;28;20433;-62
2023/10/07 07:46:18;;;;;;;17.27;7.63;;;;;;;16.37;100.00;102087.19;5073798;28;20028;-61
2023/10/07 07:48:51;;;;;;;13.25;7.03;;;;;;;16.68;100.00;102085.59;5073431;28;20106;-62
2023/10/07 07:51:17;;;;;;;15.52;6.93;;;;;;;16.84;100.00;102095.50;5073406;28;20025;-62
2023/10/07 07:53:46;;;;;;;20.92;7.18;;;;;;;16.87;99.55;102081.25;5072062;28;20128;-61
2023/10/07 07:56:15;;;;;;;20.10;7.38;;;;;;;16.87;99.88;102094.59;5073326;28;20107;-62
2023/10/07 07:58:47;;;;;;;15.57;7.10;;;;;;;16.93;99.80;102086.63;5073429;28;20044;-62
2023/10/07 08:01:28;;;;;;;15.80;7.35;;;;;;;16.94;99.39;102083.97;5073379;28;20044;-62
2023/10/07 08:04:09;;;;;;;17.00;6.97;;;;;;;17.01;98.69;102090.25;5073342;28;20037;-62
2023/10/07 08:06:36;;;;;;;14.68;7.45;;;;;;;17.16;98.57;102111.66;5072062;28;20028;-64
2023/10/07 08:09:02;;;;;;;14.55;6.90;;;;;;;17.34;96.57;102105.47;5073413;28;20024;-61
2023/10/07 08:11:34;;;;;;;16.13;7.10;;;;;;;17.38;95.98;102115.28;5072506;28;20037;-62
2023/10/07 08:14:08;;;;;;;15.77;6.57;;;;;;;17.50;95.87;102101.97;5073339;28;20093;-62
2023/10/07 08:16:37;;;;;;;18.35;7.32;;;;;;;17.82;93.66;102106.50;5073371;28;20032;-62
2023/10/07 08:19:04;;;;;;;18.13;7.07;;;;;;;18.01;92.80;102129.69;5072722;28;20056;-63
2023/10/07 08:21:29;;;;;;;13.80;6.82;;;;;;;18.22;92.26;102120.78;5072962;28;20052;-61
2023/10/07 08:23:55;;;;;;;13.57;7.15;;;;;;;18.46;90.60;102111.84;5072738;28;20497;-63
2023/10/07 08:26:22;;;;;;;16.45;7.30;;;;;;;18.70;88.61;102105.56;5072915;28;20028;-63
2023/10/07 08:28:59;;;;;;;15.57;7.13;;;;;;;18.89;87.30;102101.06;5073055;28;20036;-62
2023/10/07 08:31:39;;;;;;;15.93;6.80;;;;;;;19.11;86.24;102090.25;5072974;28;20024;-63
2023/10/07 08:36:47;;;;;;;15.25;6.70;;;;;;;19.42;83.87;102096.34;5072819;28;20121;-62
2023/10/07 08:39:13;;;;;;;13.93;6.05;;;;;;;19.68;82.84;102094.41;5072867;28;20037;-62
2023/10/07 08:41:47;;;;;;;14.70;6.30;;;;;;;19.92;81.44;102098.72;5073309;28;20048;-61
2023/10/07 08:44:13;;;;;;;20.48;6.88;;;;;;;19.81;80.95;102100.56;5072607;28;20040;-62
2023/10/07 08:46:48;;;;;;;14.35;6.72;;;;;;;19.92;80.77;102098.72;5072787;28;20024;-63
2023/10/07 08:49:24;;;;;;;16.17;5.88;;;;;;;20.14;79.65;102107.47;5072202;28;20053;-63
2023/10/07 08:51:52;;;;;;;13.13;6.18;;;;;;;20.32;78.35;102106.41;5072604;28;20483;-61
2023/10/07 08:54:18;;;;;;;15.68;6.28;;;;;;;20.34;77.42;102096.56;5054700;28;20398;-62
2023/10/07 08:56:54;;;;;;;15.07;6.18;;;;;;;20.54;77.94;102095.47;5072859;28;20101;-62
2023/10/07 08:59:32;;;;;;;15.13;5.60;;;;;;;20.80;76.39;102092.50;5072853;28;20052;-62
2023/10/07 09:02:00;;;;;;;14.77;6.03;;;;;;;20.91;74.76;102087.91;5072537;28;20478;-62
2023/10/07 09:04:31;;;;;;;13.25;5.90;;;;;;;21.07;74.15;102096.63;5072478;28;20035;-63
2023/10/07 09:06:58;;;;;;;11.05;5.70;;;;;;;21.15;72.96;102103.69;5072640;28;20063;-62
2023/10/07 09:09:34;;;;;;;15.40;5.95;;;;;;;21.33;73.52;102091.84;5072493;28;20025;-62
2023/10/07 09:12:08;;;;;;;13.43;5.90;;;;;;;21.45;72.00;102093.47;5072455;28;20032;-62
2023/10/07 09:14:33;;;;;;;12.73;5.78;;;;;;;21.54;71.21;102090.66;5072476;28;20028;-62
2023/10/07 09:17:04;;;;;;;18.98;5.85;;;;;;;21.71;69.84;102087.69;5072360;28;20504;-62
2023/10/07 09:19:30;;;;;;;13.10;5.28;;;;;;;21.77;69.90;102082.22;5072296;28;20060;-62
2023/10/07 09:21:57;;;;;;;12.30;5.38;;;;;;;21.89;69.70;102086.53;5072353;28;20059;-63
2023/10/07 09:24:26;;;;;;;12.23;5.32;;;;;;;21.90;68.36;102081.09;5072704;28;20367;-61
2023/10/07 09:26:56;;;;;;;13.13;5.40;;;;;;;22.03;67.93;102073.72;5072392;28;20032;-63
2023/10/07 09:29:27;;;;;;;15.05;5.93;;;;;;;22.24;68.30;102073.38;5072357;28;20440;-62
2023/10/07 09:32:06;;;;;;;11.98;5.53;;;;;;;22.29;66.47;102078.66;5072421;28;20099;-63
2023/10/07 09:34:45;;;;;;;12.90;5.32;;;;;;;22.37;66.46;102081.22;5072574;28;20072;-62
2023/10/07 09:37:20;;;;;;;12.88;5.50;;;;;;;22.40;66.68;102074.00;5072564;28;20040;-63
2023/10/07 09:39:54;;;;;;;10.15;5.07;;;;;;;22.29;65.44;102077.78;5075413;28;20028;-63
2023/10/07 09:42:38;;;;;;;11.82;5.25;;;;;;;22.45;65.43;102071.19;5076044;28;20032;-62
2023/10/07 09:47:37;;;;;;;10.98;4.75;;;;;;;23.09;63.25;102069.03;5075692;28;20462;-62
2023/10/07 09:50:10;;;;;;;13.98;5.00;;;;;;;23.19;63.44;102079.56;5075711;28;20382;-63
2023/10/07 09:52:41;;;;;;;10.13;5.00;;;;;;;23.27;61.56;102089.31;5076057;28;20055;-61
2023/10/07 09:55:40;;;;;;;11.03;4.50;;;;;;;23.43;63.50;102078.16;5075772;28;20478;-62
2023/10/07 09:58:41;;;;;;;11.30;4.93;;;;;;;23.61;62.19;102068.72;5076041;28;20254;-61
2023/10/07 10:01:38;;;;;;;12.23;4.25;;;;;;;23.70;61.74;102079.31;5095016;28;20032;-62
2023/10/07 10:04:28;;;;;;;12.63;4.65;;;;;;;23.67;59.49;102073.09;5092177;28;20103;-62
2023/10/07 10:07:26;;;;;;;10.60;4.35;;;;;;;23.66;61.31;102072.22;5093036;28;20063;-61
2023/10/07 10:10:06;;;;;;;10.93;4.90;;;;;;;23.47;59.59;102074.44;5093090;28;20035;-62
2023/10/07 10:18:06;;;;;;;12.20;4.30;;;;;;;23.71;59.02;102096.41;5095162;28;20028;-61
2023/10/07 10:20:45;;;;;;;9.82;4.20;;;;;;;23.79;59.75;102090.81;5092790;28;20028;-62
2023/10/07 10:23:19;;;;;;;14.65;4.57;;;;;;;24.02;59.63;102101.91;5092612;28;20028;-62
2023/10/07 10:25:55;;;;;;;11.20;5.20;;;;;;;23.96;59.43;102102.09;5095170;28;20032;-63
2023/10/07 10:28:25;;;;;;;11.15;4.63;;;;;;;24.04;58.53;102092.00;5094637;28;20024;-62
2023/10/07 10:30:53;;;;;;;12.65;4.82;;;;;;;23.88;58.67;102112.19;5092365;28;20118;-64
2023/10/07 10:33:20;;;;;;;10.50;4.70;;;;;;;23.71;58.63;102108.09;5095663;28;20078;-63
2023/10/07 10:35:52;;;;;;;11.23;5.00;;;;;;;23.67;58.34;102114.47;5095270;28;20056;-61
2023/10/07 10:38:19;;;;;;;11.63;5.10;;;;;;;23.64;58.70;102105.53;5095265;28;20024;-63
2023/10/07 10:40:45;;;;;;;11.02;4.85;;;;;;;23.86;58.45;102108.66;5095228;28;20077;-62
2023/10/07 10:43:24;;;;;;;10.95;5.00;;;;;;;23.82;58.80;102112.34;5095472;28;20122;-63
2023/10/07 10:46:06;;;;;;;11.23;4.97;;;;;;;24.06;58.04;102111.72;5095208;28;20055;-62
2023/10/07 10:48:32;;;;;;;;;;;;;;;24.20;59.56;102100.59;5095121;28;20470;-62
2023/10/07 10:50:58;;;;;;;13.65;4.90;;;;;;;24.21;56.84;102095.13;5095061;28;19947;-63
2023/10/07 10:53:24;;;;;;;12.50;5.10;;;;;;;24.29;57.37;102085.97;5095122;28;20425;-63
2023/10/07 10:55:54;;;;;;;13.15;5.15;;;;;;;24.49;57.29;102100.69;5095002;28;20474;-63
2023/10/07 10:58:19;;;;;;;9.35;4.93;;;;;;;24.60;55.95;102096.84;5095067;28;20089;-63
2023/10/07 11:00:49;;;;;;;11.70;4.70;;;;;;;24.56;56.37;102087.94;5095020;28;20024;-62
2023/10/07 11:03:20;;;;;;;12.05;5.13;;;;;;;24.65;56.28;102089.47;5094999;28;20020;-64
2023/10/07 11:05:58;;;;;;;13.77;5.20;;;;;;;24.72;55.43;102080.28;5095085;28;20032;-63
2023/10/07 11:08:29;;;;;;;14.20;5.20;;;;;;;24.99;56.09;102084.00;5094811;28;20032;-63
2023/10/07 11:10:57;;;;;;;10.95;4.90;;;;;;;25.13;55.39;102078.19;5094419;28;20492;-63
2023/10/07 11:13:24;;;;;;;11.52;5.40;;;;;;;25.17;53.76;102074.47;5094498;28;20139;-63
2023/10/07 11:16:09;;;;;;;11.55;5.18;;;;;;;25.07;54.32;102089.19;5094449;28;20028;-63
2023/10/07 11:18:37;;;;;;;15.07;5.22;;;;;;;25.03;53.71;102082.97;5092865;28;20070;-62
2023/10/07 11:21:09;;;;;;;12.38;5.22;;;;;;;25.07;53.40;102081.06;5094256;28;20039;-62
2023/10/07 11:24:06;;;;;;;;;;;;;;;25.08;54.96;102072.00;5094634;28;20385;-62
2023/10/07 11:26:32;;;;;;;10.45;4.95;;;;;;;24.98;54.02;102061.47;5073368;28;19908;-62
2023/10/07 11:28:59;;;;;;;11.30;5.03;;;;;;;25.07;54.24;102060.31;5094078;28;20024;-62
2023/10/07 11:31:31;;;;;;;10.98;4.90;;;;;;;25.33;54.65;102069.47;5092760;28;20024;-62
2023/10/07 11:33:57;;;;;;;10.32;4.75;;;;;;;25.25;53.43;102061.59;5094103;28;20542;-63
2023/10/07 11:36:23;;;;;;;14.18;4.93;;;;;;;25.26;53.18;102070.59;5093999;28;20024;-63
2023/10/07 11:38:49;;;;;;;12.07;5.28;;;;;;;25.33;53.02;102062.25;5093904;28;20024;-61
2023/10/07 11:41:16;;;;;;;12.40;5.28;;;;;;;25.39;52.66;102061.16;5093972;28;20032;-63
2023/10/07 11:43:44;;;;;;;12.68;5.40;;;;;;;25.36;52.94;102061.25;5093790;28;20539;-62
2023/10/07 11:46:13;;;;;;;11.35;5.20;;;;;;;25.41;53.28;102060.19;5093809;28;20424;-62
2023/10/07 11:48:41;;;;;;;14.27;4.72;;;;;;;25.39;53.11;102056.63;5093360;28;20509;-62
2023/10/07 11:51:07;;;;;;;13.82;5.07;;;;;;;25.61;52.38;102062.25;5093575;28;20047;-62
2023/10/07 11:53:34;;;;;;;14.25;5.10;;;;;;;25.61;52.29;102051.44;5093923;28;20057;-62
2023/10/07 11:56:00;;;;;;;12.70;4.93;;;;;;;25.70;52.35;102069.19;5093716;28;20035;-62
2023/10/07 11:58:25;;;;;;;11.77;5.10;;;;;;;25.70;52.45;102059.25;5093717;28;20032;-62
2023/10/07 12:00:50;;;;;;;12.95;5.25;;;;;;;25.41;52.28;102065.59;5093237;28;20162;-62
2023/10/07 12:03:17;;;;;;;10.80;5.10;;;;;;;25.44;52.98;102067.31;5092238;28;20028;-62
2023/10/07 12:05:43;;;;;;;15.75;4.90;;;;;;;25.62;53.50;102074.84;5093424;28;20047;-63
2023/10/07 12:08:11;;;;;;;13.43;5.18;;;;;;;25.70;52.37;102063.78;5093348;28;20032;-63
2023/10/07 12:10:37;;;;;;;12.05;4.80;;;;;;;25.77;52.95;102064.47;5093295;28;20150;-63
2023/10/07 12:13:07;;;;;;;13.02;5.15;;;;;;;26.01;51.85;102068.19;5093259;28;20078;-62
2023/10/07 12:15:33;;;;;;;10.45;4.70;;;;;;;26.19;51.12;102062.13;5093621;28;20028;-64
2023/10/07 12:18:02;;;;;;;12.93;4.97;;;;;;;26.37;50.62;102069.59;5093066;28;20089;-62
2023/10/07 12:20:28;;;;;;;10.82;4.90;;;;;;;26.49;49.79;102067.41;5093357;28;20064;-62
2023/10/07 12:22:54;;;;;;;13.98;5.07;;;;;;;26.55;49.20;102070.81;5093397;28;20058;-62
2023/10/07 12:25:19;;;;;;;15.18;5.05;;;;;;;26.56;49.37;102069.84;5093304;28;20478;-63
2023/10/07 12:27:47;;;;;;;11.82;5.00;;;;;;;26.41;49.86;102078.50;5093156;28;20028;-62